sensor_id;sensor_type;location;lat;lon;timestamp;temperature;humidity
53410;DHT22;66590;50.734;4.246;2023-05-10T00:02:10;13.10;99.90
53410;DHT22;66590;50.734;4.246;2023-05-10T00:04:37;13.10;99.90
53410;DHT22;66590;50.734;4.246;2023-05-10T00:07:04;13.20;99.90
53410;DHT22;66590;50.734;4.246;2023-05-10T00:09:32;13.10;99.90
53410;DHT22;66590;50.734;4.246;2023-05-10T00:11:59;13.20;99.90
53410;DHT22;66590;50.734;4.246;2023-05-10T00:14:26;13.20;99.90
53410;DHT22;66590;50.734;4.246;2023-05-10T00:16:53;13.20;99.90
53410;DHT22;66590;50.734;4.246;2023-05-10T00:19:20;13.30;99.90
53410;DHT22;66590;50.734;4.246;2023-05-10T00:21:47;13.40;99.90
53410;DHT22;66590;50.734;4.246;2023-05-10T00:24:14;13.40;99.90
53410;DHT22;66590;50.734;4.246;2023-05-10T00:26:43;13.40;99.90
53410;DHT22;66590;50.734;4.246;2023-05-10T00:29:10;13.20;99.90
53410;DHT22;66590;50.734;4.246;2023-05-10T00:31:37;13.20;99.90
53410;DHT22;66590;50.734;4.246;2023-05-10T00:34:04;13.20;99.90
53410;DHT22;66590;50.734;4.246;2023-05-10T00:36:31;13.10;99.90
53410;DHT22;66590;50.734;4.246;2023-05-10T00:38:58;13.30;99.90
53410;DHT22;66590;50.734;4.246;2023-05-10T00:41:25;13.30;99.90
53410;DHT22;66590;50.734;4.246;2023-05-10T00:43:53;13.20;99.90
53410;DHT22;66590;50.734;4.246;2023-05-10T00:46:20;13.00;99.90
53410;DHT22;66590;50.734;4.246;2023-05-10T00:48:48;13.00;99.90
53410;DHT22;66590;50.734;4.246;2023-05-10T00:51:15;13.00;99.90
53410;DHT22;66590;50.734;4.246;2023-05-10T00:53:45;13.00;99.90
53410;DHT22;66590;50.734;4.246;2023-05-10T00:56:13;13.00;99.90
53410;DHT22;66590;50.734;4.246;2023-05-10T00:58:40;13.10;99.90
53410;DHT22;66590;50.734;4.246;2023-05-10T01:01:08;13.40;99.90
53410;DHT22;66590;50.734;4.246;2023-05-10T01:03:36;13.20;99.90
53410;DHT22;66590;50.734;4.246;2023-05-10T01:06:03;13.10;99.90
53410;DHT22;66590;50.734;4.246;2023-05-10T01:08:30;13.00;99.90
53410;DHT22;66590;50.734;4.246;2023-05-10T01:10:58;13.10;99.90
53410;DHT22;66590;50.734;4.246;2023-05-10T01:13:31;13.00;99.90
53410;DHT22;66590;50.734;4.246;2023-05-10T01:15:59;13.00;99.90
53410;DHT22;66590;50.734;4.246;2023-05-10T01:18:29;13.00;99.90
53410;DHT22;66590;50.734;4.246;2023-05-10T01:21:09;12.90;99.90
53410;DHT22;66590;50.734;4.246;2023-05-10T01:23:53;12.90;99.90
53410;DHT22;66590;50.734;4.246;2023-05-10T01:27:01;13.00;99.90
53410;DHT22;66590;50.734;4.246;2023-05-10T01:29:56;12.90;99.90
53410;DHT22;66590;50.734;4.246;2023-05-10T01:32:54;13.00;99.90
53410;DHT22;66590;50.734;4.246;2023-05-10T01:35:30;12.80;99.90
53410;DHT22;66590;50.734;4.246;2023-05-10T01:37:59;12.80;99.90
53410;DHT22;66590;50.734;4.246;2023-05-10T01:40:35;12.80;99.90
53410;DHT22;66590;50.734;4.246;2023-05-10T01:43:05;12.80;99.90
53410;DHT22;66590;50.734;4.246;2023-05-10T01:45:38;12.80;99.90
53410;DHT22;66590;50.734;4.246;2023-05-10T01:48:10;12.80;99.90
53410;DHT22;66590;50.734;4.246;2023-05-10T01:50:39;12.80;99.90
53410;DHT22;66590;50.734;4.246;2023-05-10T01:53:10;12.80;99.90
53410;DHT22;66590;50.734;4.246;2023-05-10T01:55:43;12.80;99.90
53410;DHT22;66590;50.734;4.246;2023-05-10T01:58:14;12.80;99.90
53410;DHT22;66590;50.734;4.246;2023-05-10T02:00:43;12.80;99.90
53410;DHT22;66590;50.734;4.246;2023-05-10T02:03:13;12.80;99.90
53410;DHT22;66590;50.734;4.246;2023-05-10T02:05:43;12.90;99.90
53410;DHT22;66590;50.734;4.246;2023-05-10T02:08:11;12.90;99.90
53410;DHT22;66590;50.734;4.246;2023-05-10T02:10:39;12.90;99.90
53410;DHT22;66590;50.734;4.246;2023-05-10T02:13:07;12.90;99.90
53410;DHT22;66590;50.734;4.246;2023-05-10T02:15:36;12.90;99.90
53410;DHT22;66590;50.734;4.246;2023-05-10T02:18:05;12.90;99.90
53410;DHT22;66590;50.734;4.246;2023-05-10T02:20:34;12.90;99.90
53410;DHT22;66590;50.734;4.246;2023-05-10T02:23:03;12.90;99.90
53410;DHT22;66590;50.734;4.246;2023-05-10T02:25:31;12.80;99.90
53410;DHT22;66590;50.734;4.246;2023-05-10T02:28:02;12.80;99.90
53410;DHT22;66590;50.734;4.246;2023-05-10T02:30:31;12.80;99.90
53410;DHT22;66590;50.734;4.246;2023-05-10T02:32:59;12.80;99.90
53410;DHT22;66590;50.734;4.246;2023-05-10T02:35:27;12.70;99.90
53410;DHT22;66590;50.734;4.246;2023-05-10T02:37:57;12.70;99.90
53410;DHT22;66590;50.734;4.246;2023-05-10T02:40:26;12.70;99.90
53410;DHT22;66590;50.734;4.246;2023-05-10T02:42:56;12.80;99.90
53410;DHT22;66590;50.734;4.246;2023-05-10T02:45:26;12.80;99.90
53410;DHT22;66590;50.734;4.246;2023-05-10T02:47:54;12.80;99.90
53410;DHT22;66590;50.734;4.246;2023-05-10T02:50:22;12.90;99.90
53410;DHT22;66590;50.734;4.246;2023-05-10T02:52:56;13.00;99.90
53410;DHT22;66590;50.734;4.246;2023-05-10T02:55:26;13.00;99.90
53410;DHT22;66590;50.734;4.246;2023-05-10T02:58:00;13.00;99.90
53410;DHT22;66590;50.734;4.246;2023-05-10T03:00:27;13.00;99.90
53410;DHT22;66590;50.734;4.246;2023-05-10T03:02:54;12.90;99.90
53410;DHT22;66590;50.734;4.246;2023-05-10T03:05:22;12.90;99.90
53410;DHT22;66590;50.734;4.246;2023-05-10T03:07:49;12.80;99.90
53410;DHT22;66590;50.734;4.246;2023-05-10T03:10:18;12.80;99.90
53410;DHT22;66590;50.734;4.246;2023-05-10T03:12:52;12.70;99.90
53410;DHT22;66590;50.734;4.246;2023-05-10T03:15:28;12.80;99.90
53410;DHT22;66590;50.734;4.246;2023-05-10T03:18:04;12.70;99.90
53410;DHT22;66590;50.734;4.246;2023-05-10T03:20:35;12.70;99.90
53410;DHT22;66590;50.734;4.246;2023-05-10T03:23:12;12.70;99.90
53410;DHT22;66590;50.734;4.246;2023-05-10T03:25:42;12.70;99.90
53410;DHT22;66590;50.734;4.246;2023-05-10T03:28:10;12.60;99.90
53410;DHT22;66590;50.734;4.246;2023-05-10T03:30:37;12.70;99.90
53410;DHT22;66590;50.734;4.246;2023-05-10T03:33:05;12.70;99.90
53410;DHT22;66590;50.734;4.246;2023-05-10T03:35:32;12.80;99.90
53410;DHT22;66590;50.734;4.246;2023-05-10T03:37:59;12.70;99.90
53410;DHT22;66590;50.734;4.246;2023-05-10T03:40:27;12.70;99.90
53410;DHT22;66590;50.734;4.246;2023-05-10T03:42:56;12.70;99.90
53410;DHT22;66590;50.734;4.246;2023-05-10T03:45:23;12.60;99.90
53410;DHT22;66590;50.734;4.246;2023-05-10T03:47:50;12.60;99.90
53410;DHT22;66590;50.734;4.246;2023-05-10T03:50:16;12.70;99.90
53410;DHT22;66590;50.734;4.246;2023-05-10T03:52:45;12.60;99.90
53410;DHT22;66590;50.734;4.246;2023-05-10T03:55:12;12.60;99.90
53410;DHT22;66590;50.734;4.246;2023-05-10T03:57:39;12.70;99.90
53410;DHT22;66590;50.734;4.246;2023-05-10T04:00:08;12.60;99.90
53410;DHT22;66590;50.734;4.246;2023-05-10T04:02:36;12.50;99.90
53410;DHT22;66590;50.734;4.246;2023-05-10T04:05:05;12.40;99.90
53410;DHT22;66590;50.734;4.246;2023-05-10T04:07:31;12.30;99.90
53410;DHT22;66590;50.734;4.246;2023-05-10T04:09:58;12.40;99.90
53410;DHT22;66590;50.734;4.246;2023-05-10T04:12:25;12.30;99.90
53410;DHT22;66590;50.734;4.246;2023-05-10T04:14:52;12.30;99.90
53410;DHT22;66590;50.734;4.246;2023-05-10T04:17:21;12.20;99.90
53410;DHT22;66590;50.734;4.246;2023-05-10T04:19:48;12.20;99.90
53410;DHT22;66590;50.734;4.246;2023-05-10T04:22:15;12.10;99.90
53410;DHT22;66590;50.734;4.246;2023-05-10T04:24:42;12.00;99.90
53410;DHT22;66590;50.734;4.246;2023-05-10T04:27:09;12.00;99.90
53410;DHT22;66590;50.734;4.246;2023-05-10T04:29:36;12.00;99.90
53410;DHT22;66590;50.734;4.246;2023-05-10T04:32:03;12.00;99.90
53410;DHT22;66590;50.734;4.246;2023-05-10T04:34:32;11.90;99.90
53410;DHT22;66590;50.734;4.246;2023-05-10T04:36:59;11.80;99.90
53410;DHT22;66590;50.734;4.246;2023-05-10T04:39:25;11.80;99.90
53410;DHT22;66590;50.734;4.246;2023-05-10T04:41:52;11.80;99.90
53410;DHT22;66590;50.734;4.246;2023-05-10T04:44:19;11.80;99.90
53410;DHT22;66590;50.734;4.246;2023-05-10T04:46:46;11.80;99.90
53410;DHT22;66590;50.734;4.246;2023-05-10T04:49:13;11.80;99.90
53410;DHT22;66590;50.734;4.246;2023-05-10T04:51:42;11.80;99.90
53410;DHT22;66590;50.734;4.246;2023-05-10T04:54:09;11.80;99.90
53410;DHT22;66590;50.734;4.246;2023-05-10T04:56:36;11.90;99.90
53410;DHT22;66590;50.734;4.246;2023-05-10T04:59:03;11.90;99.90
53410;DHT22;66590;50.734;4.246;2023-05-10T05:01:30;11.90;99.90
53410;DHT22;66590;50.734;4.246;2023-05-10T05:03:57;11.80;99.90
53410;DHT22;66590;50.734;4.246;2023-05-10T05:06:25;11.80;99.90
53410;DHT22;66590;50.734;4.246;2023-05-10T05:08:54;11.70;99.90
53410;DHT22;66590;50.734;4.246;2023-05-10T05:11:21;11.70;99.90
53410;DHT22;66590;50.734;4.246;2023-05-10T05:13:47;11.70;99.90
53410;DHT22;66590;50.734;4.246;2023-05-10T05:16:14;11.70;99.90
53410;DHT22;66590;50.734;4.246;2023-05-10T05:18:42;11.70;99.90
53410;DHT22;66590;50.734;4.246;2023-05-10T05:21:15;11.70;99.90
53410;DHT22;66590;50.734;4.246;2023-05-10T05:23:42;11.70;99.90
53410;DHT22;66590;50.734;4.246;2023-05-10T05:26:10;11.70;99.90
53410;DHT22;66590;50.734;4.246;2023-05-10T05:28:37;11.70;99.90
53410;DHT22;66590;50.734;4.246;2023-05-10T05:31:05;11.60;99.90
53410;DHT22;66590;50.734;4.246;2023-05-10T05:33:32;11.60;99.90
53410;DHT22;66590;50.734;4.246;2023-05-10T05:36:01;11.60;99.90
53410;DHT22;66590;50.734;4.246;2023-05-10T05:38:28;11.60;99.90
53410;DHT22;66590;50.734;4.246;2023-05-10T05:40:55;11.70;99.90
53410;DHT22;66590;50.734;4.246;2023-05-10T05:43:23;11.60;99.90
53410;DHT22;66590;50.734;4.246;2023-05-10T05:45:52;11.60;99.90
53410;DHT22;66590;50.734;4.246;2023-05-10T05:48:19;11.70;99.90
53410;DHT22;66590;50.734;4.246;2023-05-10T05:50:46;11.70;99.90
53410;DHT22;66590;50.734;4.246;2023-05-10T05:53:13;11.60;99.90
53410;DHT22;66590;50.734;4.246;2023-05-10T05:55:40;11.70;99.90
53410;DHT22;66590;50.734;4.246;2023-05-10T05:58:06;11.80;99.90
53410;DHT22;66590;50.734;4.246;2023-05-10T06:00:35;11.80;99.90
53410;DHT22;66590;50.734;4.246;2023-05-10T06:03:02;11.70;99.90
53410;DHT22;66590;50.734;4.246;2023-05-10T06:05:29;11.60;99.90
53410;DHT22;66590;50.734;4.246;2023-05-10T06:07:56;11.60;99.90
53410;DHT22;66590;50.734;4.246;2023-05-10T06:10:23;11.50;99.90
53410;DHT22;66590;50.734;4.246;2023-05-10T06:12:50;11.60;99.90
53410;DHT22;66590;50.734;4.246;2023-05-10T06:15:17;11.60;99.90
53410;DHT22;66590;50.734;4.246;2023-05-10T06:17:46;11.50;99.90
53410;DHT22;66590;50.734;4.246;2023-05-10T06:20:13;11.40;99.90
53410;DHT22;66590;50.734;4.246;2023-05-10T06:22:40;11.40;99.90
53410;DHT22;66590;50.734;4.246;2023-05-10T06:25:08;11.60;99.90
53410;DHT22;66590;50.734;4.246;2023-05-10T06:27:35;11.60;99.90
53410;DHT22;66590;50.734;4.246;2023-05-10T06:30:03;11.50;99.90
53410;DHT22;66590;50.734;4.246;2023-05-10T06:32:38;11.50;99.90
53410;DHT22;66590;50.734;4.246;2023-05-10T06:35:08;11.50;99.90
53410;DHT22;66590;50.734;4.246;2023-05-10T06:37:35;11.60;99.90
53410;DHT22;66590;50.734;4.246;2023-05-10T06:40:02;11.60;99.90
53410;DHT22;66590;50.734;4.246;2023-05-10T06:42:29;11.50;99.90
53410;DHT22;66590;50.734;4.246;2023-05-10T06:44:56;11.60;99.90
53410;DHT22;66590;50.734;4.246;2023-05-10T06:47:23;11.70;99.90
53410;DHT22;66590;50.734;4.246;2023-05-10T06:49:50;11.80;99.90
53410;DHT22;66590;50.734;4.246;2023-05-10T06:52:18;11.70;99.90
53410;DHT22;66590;50.734;4.246;2023-05-10T06:54:45;11.50;99.90
53410;DHT22;66590;50.734;4.246;2023-05-10T06:57:12;11.50;99.90
53410;DHT22;66590;50.734;4.246;2023-05-10T06:59:57;11.60;99.90
53410;DHT22;66590;50.734;4.246;2023-05-10T07:02:24;11.60;99.90
53410;DHT22;66590;50.734;4.246;2023-05-10T07:04:51;11.70;99.90
53410;DHT22;66590;50.734;4.246;2023-05-10T07:07:19;11.80;99.90
53410;DHT22;66590;50.734;4.246;2023-05-10T07:09:46;11.70;99.90
53410;DHT22;66590;50.734;4.246;2023-05-10T07:12:13;11.60;99.90
53410;DHT22;66590;50.734;4.246;2023-05-10T07:14:41;11.70;99.90
53410;DHT22;66590;50.734;4.246;2023-05-10T07:17:09;11.60;99.90
53410;DHT22;66590;50.734;4.246;2023-05-10T07:19:36;11.70;99.90
53410;DHT22;66590;50.734;4.246;2023-05-10T07:22:03;11.70;99.90
53410;DHT22;66590;50.734;4.246;2023-05-10T07:24:31;11.70;99.90
53410;DHT22;66590;50.734;4.246;2023-05-10T07:26:58;11.70;99.90
53410;DHT22;66590;50.734;4.246;2023-05-10T07:29:25;11.70;99.90
53410;DHT22;66590;50.734;4.246;2023-05-10T07:31:52;11.70;99.90
53410;DHT22;66590;50.734;4.246;2023-05-10T07:34:22;11.80;99.90
53410;DHT22;66590;50.734;4.246;2023-05-10T07:36:49;11.90;99.90
53410;DHT22;66590;50.734;4.246;2023-05-10T07:39:16;11.80;99.90
53410;DHT22;66590;50.734;4.246;2023-05-10T07:41:54;11.70;99.90
53410;DHT22;66590;50.734;4.246;2023-05-10T07:44:22;11.70;99.90
53410;DHT22;66590;50.734;4.246;2023-05-10T07:46:49;11.80;99.90
53410;DHT22;66590;50.734;4.246;2023-05-10T07:49:16;11.90;99.90
53410;DHT22;66590;50.734;4.246;2023-05-10T07:51:43;11.90;99.90
53410;DHT22;66590;50.734;4.246;2023-05-10T07:54:10;11.90;99.90
53410;DHT22;66590;50.734;4.246;2023-05-10T07:56:37;11.90;99.90
53410;DHT22;66590;50.734;4.246;2023-05-10T07:59:05;11.80;99.90
53410;DHT22;66590;50.734;4.246;2023-05-10T08:01:33;11.80;99.90
53410;DHT22;66590;50.734;4.246;2023-05-10T08:04:01;11.90;99.90
53410;DHT22;66590;50.734;4.246;2023-05-10T08:06:28;12.00;99.90
53410;DHT22;66590;50.734;4.246;2023-05-10T08:08:56;12.10;99.90
53410;DHT22;66590;50.734;4.246;2023-05-10T08:11:23;12.00;99.90
53410;DHT22;66590;50.734;4.246;2023-05-10T08:13:51;11.80;99.90
53410;DHT22;66590;50.734;4.246;2023-05-10T08:16:19;11.80;99.90
53410;DHT22;66590;50.734;4.246;2023-05-10T08:18:47;11.90;99.90
53410;DHT22;66590;50.734;4.246;2023-05-10T08:21:14;11.80;99.90
53410;DHT22;66590;50.734;4.246;2023-05-10T08:23:41;11.80;99.90
53410;DHT22;66590;50.734;4.246;2023-05-10T08:26:08;11.80;99.90
53410;DHT22;66590;50.734;4.246;2023-05-10T08:28:35;11.80;99.90
53410;DHT22;66590;50.734;4.246;2023-05-10T08:31:02;11.90;99.90
53410;DHT22;66590;50.734;4.246;2023-05-10T08:33:30;11.90;99.90
53410;DHT22;66590;50.734;4.246;2023-05-10T08:35:57;12.00;99.90
53410;DHT22;66590;50.734;4.246;2023-05-10T08:38:24;12.10;99.90
53410;DHT22;66590;50.734;4.246;2023-05-10T08:40:54;12.10;99.90
53410;DHT22;66590;50.734;4.246;2023-05-10T08:43:21;12.30;99.90
53410;DHT22;66590;50.734;4.246;2023-05-10T08:45:51;12.40;99.90
53410;DHT22;66590;50.734;4.246;2023-05-10T08:48:19;12.30;99.90
53410;DHT22;66590;50.734;4.246;2023-05-10T08:50:53;12.30;99.90
53410;DHT22;66590;50.734;4.246;2023-05-10T08:53:21;12.20;99.90
53410;DHT22;66590;50.734;4.246;2023-05-10T08:55:49;12.10;99.90
53410;DHT22;66590;50.734;4.246;2023-05-10T08:58:17;12.00;99.90
53410;DHT22;66590;50.734;4.246;2023-05-10T09:00:44;12.10;99.90
53410;DHT22;66590;50.734;4.246;2023-05-10T09:03:12;12.40;99.90
53410;DHT22;66590;50.734;4.246;2023-05-10T09:05:39;12.60;99.90
53410;DHT22;66590;50.734;4.246;2023-05-10T09:08:08;12.60;99.90
53410;DHT22;66590;50.734;4.246;2023-05-10T09:10:35;12.40;99.90
53410;DHT22;66590;50.734;4.246;2023-05-10T09:13:02;12.20;99.90
53410;DHT22;66590;50.734;4.246;2023-05-10T09:15:30;12.20;99.90
53410;DHT22;66590;50.734;4.246;2023-05-10T09:17:57;12.20;99.90
53410;DHT22;66590;50.734;4.246;2023-05-10T09:20:24;12.10;99.90
53410;DHT22;66590;50.734;4.246;2023-05-10T09:22:51;12.20;99.90
53410;DHT22;66590;50.734;4.246;2023-05-10T09:25:20;12.10;99.90
53410;DHT22;66590;50.734;4.246;2023-05-10T09:27:47;12.30;99.90
53410;DHT22;66590;50.734;4.246;2023-05-10T09:30:23;12.20;99.90
53410;DHT22;66590;50.734;4.246;2023-05-10T09:32:50;12.10;99.90
53410;DHT22;66590;50.734;4.246;2023-05-10T09:35:19;12.10;99.90
53410;DHT22;66590;50.734;4.246;2023-05-10T09:37:48;12.10;99.90
53410;DHT22;66590;50.734;4.246;2023-05-10T09:40:16;12.10;99.90
53410;DHT22;66590;50.734;4.246;2023-05-10T09:42:56;12.10;99.90
53410;DHT22;66590;50.734;4.246;2023-05-10T09:45:24;12.10;99.90
53410;DHT22;66590;50.734;4.246;2023-05-10T09:47:51;12.10;99.90
53410;DHT22;66590;50.734;4.246;2023-05-10T09:50:19;12.20;99.90
53410;DHT22;66590;50.734;4.246;2023-05-10T09:52:48;12.10;99.90
53410;DHT22;66590;50.734;4.246;2023-05-10T09:55:15;12.20;99.90
53410;DHT22;66590;50.734;4.246;2023-05-10T09:57:43;12.40;99.90
53410;DHT22;66590;50.734;4.246;2023-05-10T10:00:17;12.60;99.90
53410;DHT22;66590;50.734;4.246;2023-05-10T10:02:46;12.60;99.90
53410;DHT22;66590;50.734;4.246;2023-05-10T10:05:13;12.60;99.90
53410;DHT22;66590;50.734;4.246;2023-05-10T10:07:40;12.40;99.90
53410;DHT22;66590;50.734;4.246;2023-05-10T10:10:08;12.50;99.90
53410;DHT22;66590;50.734;4.246;2023-05-10T10:12:35;12.60;99.90
53410;DHT22;66590;50.734;4.246;2023-05-10T10:15:03;12.60;99.90
53410;DHT22;66590;50.734;4.246;2023-05-10T10:17:32;12.70;99.90
53410;DHT22;66590;50.734;4.246;2023-05-10T10:20:02;12.80;99.90
53410;DHT22;66590;50.734;4.246;2023-05-10T10:22:29;12.90;99.90
53410;DHT22;66590;50.734;4.246;2023-05-10T10:24:57;13.00;99.90
53410;DHT22;66590;50.734;4.246;2023-05-10T10:27:31;13.00;99.90
53410;DHT22;66590;50.734;4.246;2023-05-10T10:30:04;13.10;99.90
53410;DHT22;66590;50.734;4.246;2023-05-10T10:32:42;13.20;99.90
53410;DHT22;66590;50.734;4.246;2023-05-10T10:35:14;13.20;99.90
53410;DHT22;66590;50.734;4.246;2023-05-10T10:37:43;13.20;99.90
53410;DHT22;66590;50.734;4.246;2023-05-10T10:40:24;13.10;99.90
53410;DHT22;66590;50.734;4.246;2023-05-10T10:42:53;13.10;99.90
53410;DHT22;66590;50.734;4.246;2023-05-10T10:45:21;13.10;99.90
53410;DHT22;66590;50.734;4.246;2023-05-10T10:47:56;13.00;99.90
53410;DHT22;66590;50.734;4.246;2023-05-10T10:50:44;13.00;99.90
53410;DHT22;66590;50.734;4.246;2023-05-10T10:53:11;13.10;99.90
53410;DHT22;66590;50.734;4.246;2023-05-10T10:55:46;13.40;99.90
53410;DHT22;66590;50.734;4.246;2023-05-10T10:58:29;13.40;99.90
53410;DHT22;66590;50.734;4.246;2023-05-10T11:01:12;13.80;99.90
53410;DHT22;66590;50.734;4.246;2023-05-10T11:04:16;14.40;99.90
53410;DHT22;66590;50.734;4.246;2023-05-10T11:06:42;14.90;99.90
53410;DHT22;66590;50.734;4.246;2023-05-10T11:09:10;15.30;99.90
53410;DHT22;66590;50.734;4.246;2023-05-10T11:11:48;15.80;99.90
53410;DHT22;66590;50.734;4.246;2023-05-10T11:14:20;15.90;99.90
53410;DHT22;66590;50.734;4.246;2023-05-10T11:16:47;16.00;99.90
53410;DHT22;66590;50.734;4.246;2023-05-10T11:19:16;16.40;99.90
53410;DHT22;66590;50.734;4.246;2023-05-10T11:21:48;16.30;99.90
53410;DHT22;66590;50.734;4.246;2023-05-10T11:24:16;16.60;99.90
53410;DHT22;66590;50.734;4.246;2023-05-10T11:26:44;16.90;99.90
53410;DHT22;66590;50.734;4.246;2023-05-10T11:29:12;16.70;99.90
53410;DHT22;66590;50.734;4.246;2023-05-10T11:31:42;16.70;99.90
53410;DHT22;66590;50.734;4.246;2023-05-10T11:34:09;17.10;99.90
53410;DHT22;66590;50.734;4.246;2023-05-10T11:36:38;17.50;99.90
53410;DHT22;66590;50.734;4.246;2023-05-10T11:39:05;17.80;99.90
53410;DHT22;66590;50.734;4.246;2023-05-10T11:41:32;18.20;99.90
53410;DHT22;66590;50.734;4.246;2023-05-10T11:43:59;18.40;99.90
53410;DHT22;66590;50.734;4.246;2023-05-10T11:46:27;18.20;99.90
53410;DHT22;66590;50.734;4.246;2023-05-10T11:48:57;18.30;99.90
53410;DHT22;66590;50.734;4.246;2023-05-10T11:51:25;18.50;99.90
53410;DHT22;66590;50.734;4.246;2023-05-10T11:53:55;18.80;99.90
53410;DHT22;66590;50.734;4.246;2023-05-10T11:56:22;18.40;99.90
53410;DHT22;66590;50.734;4.246;2023-05-10T11:58:53;18.40;99.90
53410;DHT22;66590;50.734;4.246;2023-05-10T12:01:21;18.30;99.90
53410;DHT22;66590;50.734;4.246;2023-05-10T12:03:48;17.50;99.90
53410;DHT22;66590;50.734;4.246;2023-05-10T12:06:16;17.10;99.90
53410;DHT22;66590;50.734;4.246;2023-05-10T12:08:45;17.30;99.90
53410;DHT22;66590;50.734;4.246;2023-05-10T12:11:14;17.60;99.90
53410;DHT22;66590;50.734;4.246;2023-05-10T12:13:43;17.00;99.90
53410;DHT22;66590;50.734;4.246;2023-05-10T12:16:13;16.50;99.90
53410;DHT22;66590;50.734;4.246;2023-05-10T12:18:41;16.00;99.90
53410;DHT22;66590;50.734;4.246;2023-05-10T12:21:09;15.60;99.90
53410;DHT22;66590;50.734;4.246;2023-05-10T12:23:36;15.70;99.90
53410;DHT22;66590;50.734;4.246;2023-05-10T12:26:04;15.60;99.90
53410;DHT22;66590;50.734;4.246;2023-05-10T12:28:33;15.50;99.90
53410;DHT22;66590;50.734;4.246;2023-05-10T12:31:00;15.70;99.90
53410;DHT22;66590;50.734;4.246;2023-05-10T12:33:35;15.80;99.90
53410;DHT22;66590;50.734;4.246;2023-05-10T12:36:02;16.00;99.90
53410;DHT22;66590;50.734;4.246;2023-05-10T12:38:32;16.10;99.90
53410;DHT22;66590;50.734;4.246;2023-05-10T12:41:01;16.10;99.90
53410;DHT22;66590;50.734;4.246;2023-05-10T12:43:28;16.40;99.90
53410;DHT22;66590;50.734;4.246;2023-05-10T12:45:57;16.40;99.90
53410;DHT22;66590;50.734;4.246;2023-05-10T12:48:24;16.10;99.90
53410;DHT22;66590;50.734;4.246;2023-05-10T12:50:51;15.90;99.90
53410;DHT22;66590;50.734;4.246;2023-05-10T12:53:18;16.40;99.90
53410;DHT22;66590;50.734;4.246;2023-05-10T12:55:45;16.80;99.90
53410;DHT22;66590;50.734;4.246;2023-05-10T12:58:12;16.70;99.90
53410;DHT22;66590;50.734;4.246;2023-05-10T13:00:59;17.20;99.90
53410;DHT22;66590;50.734;4.246;2023-05-10T13:03:26;16.90;99.90
53410;DHT22;66590;50.734;4.246;2023-05-10T13:05:53;16.90;99.90
53410;DHT22;66590;50.734;4.246;2023-05-10T13:08:20;17.60;99.90
53410;DHT22;66590;50.734;4.246;2023-05-10T13:10:47;17.90;99.90
53410;DHT22;66590;50.734;4.246;2023-05-10T13:13:15;18.30;99.90
53410;DHT22;66590;50.734;4.246;2023-05-10T13:15:42;18.00;99.90
53410;DHT22;66590;50.734;4.246;2023-05-10T13:18:10;17.40;99.90
53410;DHT22;66590;50.734;4.246;2023-05-10T13:20:37;17.00;99.90
53410;DHT22;66590;50.734;4.246;2023-05-10T13:23:04;17.00;99.90
53410;DHT22;66590;50.734;4.246;2023-05-10T13:25:31;17.00;99.90
53410;DHT22;66590;50.734;4.246;2023-05-10T13:27:58;16.90;99.90
53410;DHT22;66590;50.734;4.246;2023-05-10T13:30:25;17.10;99.90
53410;DHT22;66590;50.734;4.246;2023-05-10T13:32:52;17.50;99.90
53410;DHT22;66590;50.734;4.246;2023-05-10T13:35:21;17.70;99.90
53410;DHT22;66590;50.734;4.246;2023-05-10T13:37:47;17.60;99.90
53410;DHT22;66590;50.734;4.246;2023-05-10T13:40:14;17.10;99.90
53410;DHT22;66590;50.734;4.246;2023-05-10T13:42:42;17.40;99.90
53410;DHT22;66590;50.734;4.246;2023-05-10T13:45:10;17.60;99.90
53410;DHT22;66590;50.734;4.246;2023-05-10T13:47:37;17.40;99.90
53410;DHT22;66590;50.734;4.246;2023-05-10T13:50:04;17.60;99.90
53410;DHT22;66590;50.734;4.246;2023-05-10T13:52:33;17.60;99.90
53410;DHT22;66590;50.734;4.246;2023-05-10T13:55:00;17.70;99.90
53410;DHT22;66590;50.734;4.246;2023-05-10T13:57:26;17.70;99.90
53410;DHT22;66590;50.734;4.246;2023-05-10T13:59:53;17.90;99.90
53410;DHT22;66590;50.734;4.246;2023-05-10T14:02:22;17.50;99.90
53410;DHT22;66590;50.734;4.246;2023-05-10T14:04:49;17.20;99.90
53410;DHT22;66590;50.734;4.246;2023-05-10T14:07:16;17.20;99.90
53410;DHT22;66590;50.734;4.246;2023-05-10T14:09:45;17.10;99.90
53410;DHT22;66590;50.734;4.246;2023-05-10T14:12:12;17.00;99.90
53410;DHT22;66590;50.734;4.246;2023-05-10T14:14:39;16.70;99.90
53410;DHT22;66590;50.734;4.246;2023-05-10T14:17:06;16.40;99.90
53410;DHT22;66590;50.734;4.246;2023-05-10T14:19:34;16.50;99.90
53410;DHT22;66590;50.734;4.246;2023-05-10T14:22:01;16.50;99.90
53410;DHT22;66590;50.734;4.246;2023-05-10T14:24:28;16.30;99.90
53410;DHT22;66590;50.734;4.246;2023-05-10T14:26:56;16.40;99.90
53410;DHT22;66590;50.734;4.246;2023-05-10T14:29:23;16.50;99.90
53410;DHT22;66590;50.734;4.246;2023-05-10T14:31:50;16.50;99.90
53410;DHT22;66590;50.734;4.246;2023-05-10T14:34:17;16.50;99.90
53410;DHT22;66590;50.734;4.246;2023-05-10T14:36:44;16.40;99.90
53410;DHT22;66590;50.734;4.246;2023-05-10T14:39:11;16.30;99.90
53410;DHT22;66590;50.734;4.246;2023-05-10T14:41:38;16.20;99.90
53410;DHT22;66590;50.734;4.246;2023-05-10T14:44:07;16.30;99.90
53410;DHT22;66590;50.734;4.246;2023-05-10T14:46:34;16.40;99.90
53410;DHT22;66590;50.734;4.246;2023-05-10T14:49:01;16.30;99.90
53410;DHT22;66590;50.734;4.246;2023-05-10T14:51:28;16.20;99.90
53410;DHT22;66590;50.734;4.246;2023-05-10T14:53:55;16.10;99.90
53410;DHT22;66590;50.734;4.246;2023-05-10T14:56:22;15.90;99.90
53410;DHT22;66590;50.734;4.246;2023-05-10T14:58:49;15.70;99.90
53410;DHT22;66590;50.734;4.246;2023-05-10T15:01:18;15.60;99.90
53410;DHT22;66590;50.734;4.246;2023-05-10T15:03:45;15.60;99.90
53410;DHT22;66590;50.734;4.246;2023-05-10T15:06:14;15.60;99.90
53410;DHT22;66590;50.734;4.246;2023-05-10T15:08:41;15.60;99.90
53410;DHT22;66590;50.734;4.246;2023-05-10T15:11:08;15.40;99.90
53410;DHT22;66590;50.734;4.246;2023-05-10T15:13:35;15.50;99.90
53410;DHT22;66590;50.734;4.246;2023-05-10T15:16:01;15.40;99.90
53410;DHT22;66590;50.734;4.246;2023-05-10T15:18:30;15.40;99.90
53410;DHT22;66590;50.734;4.246;2023-05-10T15:20:57;15.60;99.90
53410;DHT22;66590;50.734;4.246;2023-05-10T15:23:24;15.80;99.90
53410;DHT22;66590;50.734;4.246;2023-05-10T15:25:51;16.00;99.90
53410;DHT22;66590;50.734;4.246;2023-05-10T15:28:18;15.90;99.90
53410;DHT22;66590;50.734;4.246;2023-05-10T15:30:45;16.00;99.90
53410;DHT22;66590;50.734;4.246;2023-05-10T15:33:12;16.10;99.90
53410;DHT22;66590;50.734;4.246;2023-05-10T15:35:40;16.00;99.90
53410;DHT22;66590;50.734;4.246;2023-05-10T15:38:07;15.90;99.90
53410;DHT22;66590;50.734;4.246;2023-05-10T15:40:34;16.00;99.90